sensor_id;sensor_type;location;lat;lon;timestamp;temperature;humidity
8792;DHT22;4432;50.890;4.744;2022-10-16T00:01:17;13.90;99.90
8792;DHT22;4432;50.890;4.744;2022-10-16T00:03:44;13.80;99.90
8792;DHT22;4432;50.890;4.744;2022-10-16T00:06:12;13.80;99.90
8792;DHT22;4432;50.890;4.744;2022-10-16T00:08:38;13.80;99.90
8792;DHT22;4432;50.890;4.744;2022-10-16T00:11:10;13.70;99.90
8792;DHT22;4432;50.890;4.744;2022-10-16T00:13:37;13.70;99.90
8792;DHT22;4432;50.890;4.744;2022-10-16T00:16:04;13.60;99.90
8792;DHT22;4432;50.890;4.744;2022-10-16T00:18:30;13.60;99.90
8792;DHT22;4432;50.890;4.744;2022-10-16T00:21:02;13.60;99.90
8792;DHT22;4432;50.890;4.744;2022-10-16T00:23:28;13.70;99.90
8792;DHT22;4432;50.890;4.744;2022-10-16T00:25:59;13.70;99.90
8792;DHT22;4432;50.890;4.744;2022-10-16T00:28:26;13.60;99.90
8792;DHT22;4432;50.890;4.744;2022-10-16T00:30:52;13.70;99.90
8792;DHT22;4432;50.890;4.744;2022-10-16T00:33:18;13.60;99.90
8792;DHT22;4432;50.890;4.744;2022-10-16T00:35:44;13.60;99.90
8792;DHT22;4432;50.890;4.744;2022-10-16T00:38:10;13.50;99.90
8792;DHT22;4432;50.890;4.744;2022-10-16T00:40:36;13.50;99.90
8792;DHT22;4432;50.890;4.744;2022-10-16T00:43:02;13.60;99.90
8792;DHT22;4432;50.890;4.744;2022-10-16T00:45:28;13.60;99.90
8792;DHT22;4432;50.890;4.744;2022-10-16T00:47:55;13.50;99.90
8792;DHT22;4432;50.890;4.744;2022-10-16T00:50:33;13.50;99.90
8792;DHT22;4432;50.890;4.744;2022-10-16T00:53:00;13.50;99.90
8792;DHT22;4432;50.890;4.744;2022-10-16T00:55:27;13.50;99.90
8792;DHT22;4432;50.890;4.744;2022-10-16T00:57:56;13.50;99.90
8792;DHT22;4432;50.890;4.744;2022-10-16T01:00:24;13.50;99.90
8792;DHT22;4432;50.890;4.744;2022-10-16T01:02:55;13.40;99.90
8792;DHT22;4432;50.890;4.744;2022-10-16T01:05:23;13.40;99.90
8792;DHT22;4432;50.890;4.744;2022-10-16T01:10:38;13.30;99.90
8792;DHT22;4432;50.890;4.744;2022-10-16T01:18:30;13.40;99.90
8792;DHT22;4432;50.890;4.744;2022-10-16T01:21:33;13.30;99.90
8792;DHT22;4432;50.890;4.744;2022-10-16T01:29:41;13.30;99.90
8792;DHT22;4432;50.890;4.744;2022-10-16T01:32:19;13.20;99.90
8792;DHT22;4432;50.890;4.744;2022-10-16T01:34:52;13.30;99.90
8792;DHT22;4432;50.890;4.744;2022-10-16T01:37:48;13.20;99.90
8792;DHT22;4432;50.890;4.744;2022-10-16T01:40:13;13.20;99.90
8792;DHT22;4432;50.890;4.744;2022-10-16T01:42:46;13.20;99.90
8792;DHT22;4432;50.890;4.744;2022-10-16T01:45:14;13.10;99.90
8792;DHT22;4432;50.890;4.744;2022-10-16T01:47:41;13.20;99.90
8792;DHT22;4432;50.890;4.744;2022-10-16T01:50:09;13.10;99.90
8792;DHT22;4432;50.890;4.744;2022-10-16T01:52:38;13.10;99.90
8792;DHT22;4432;50.890;4.744;2022-10-16T01:55:07;13.20;99.90
8792;DHT22;4432;50.890;4.744;2022-10-16T01:57:36;13.20;99.90
8792;DHT22;4432;50.890;4.744;2022-10-16T02:00:08;13.20;99.90
8792;DHT22;4432;50.890;4.744;2022-10-16T02:02:36;13.10;99.90
8792;DHT22;4432;50.890;4.744;2022-10-16T02:05:16;13.10;99.90
8792;DHT22;4432;50.890;4.744;2022-10-16T02:07:44;13.10;99.90
8792;DHT22;4432;50.890;4.744;2022-10-16T02:10:10;13.10;99.90
8792;DHT22;4432;50.890;4.744;2022-10-16T02:12:38;13.00;99.90
8792;DHT22;4432;50.890;4.744;2022-10-16T02:15:06;13.00;99.90
8792;DHT22;4432;50.890;4.744;2022-10-16T02:17:32;13.00;99.90
8792;DHT22;4432;50.890;4.744;2022-10-16T02:19:59;13.10;99.90
8792;DHT22;4432;50.890;4.744;2022-10-16T02:22:39;13.10;99.90
8792;DHT22;4432;50.890;4.744;2022-10-16T02:25:17;13.10;99.90
8792;DHT22;4432;50.890;4.744;2022-10-16T02:28:13;13.10;99.90
8792;DHT22;4432;50.890;4.744;2022-10-16T02:30:52;13.10;99.90
8792;DHT22;4432;50.890;4.744;2022-10-16T02:33:21;13.10;99.90
8792;DHT22;4432;50.890;4.744;2022-10-16T02:35:49;13.20;99.90
8792;DHT22;4432;50.890;4.744;2022-10-16T02:38:17;13.20;99.90
8792;DHT22;4432;50.890;4.744;2022-10-16T02:40:43;13.20;99.90
8792;DHT22;4432;50.890;4.744;2022-10-16T02:43:09;13.20;99.90
8792;DHT22;4432;50.890;4.744;2022-10-16T02:45:36;13.20;99.90
8792;DHT22;4432;50.890;4.744;2022-10-16T02:48:02;13.20;99.90
8792;DHT22;4432;50.890;4.744;2022-10-16T02:50:27;13.20;99.90
8792;DHT22;4432;50.890;4.744;2022-10-16T02:52:53;13.20;99.90
8792;DHT22;4432;50.890;4.744;2022-10-16T02:55:19;13.20;99.90
8792;DHT22;4432;50.890;4.744;2022-10-16T02:57:45;13.10;99.90
8792;DHT22;4432;50.890;4.744;2022-10-16T03:00:13;13.10;99.90
8792;DHT22;4432;50.890;4.744;2022-10-16T03:02:39;13.00;99.90
8792;DHT22;4432;50.890;4.744;2022-10-16T03:05:06;13.00;99.90
8792;DHT22;4432;50.890;4.744;2022-10-16T03:07:32;13.00;99.90
8792;DHT22;4432;50.890;4.744;2022-10-16T03:09:57;13.10;99.90
8792;DHT22;4432;50.890;4.744;2022-10-16T03:12:26;13.10;99.90
8792;DHT22;4432;50.890;4.744;2022-10-16T03:14:52;13.20;99.90
8792;DHT22;4432;50.890;4.744;2022-10-16T03:17:18;13.20;99.90
8792;DHT22;4432;50.890;4.744;2022-10-16T03:19:44;13.10;99.90
8792;DHT22;4432;50.890;4.744;2022-10-16T03:22:10;13.10;99.90
8792;DHT22;4432;50.890;4.744;2022-10-16T03:24:35;13.20;99.90
8792;DHT22;4432;50.890;4.744;2022-10-16T03:27:01;13.20;99.90
8792;DHT22;4432;50.890;4.744;2022-10-16T03:29:27;13.20;99.90
8792;DHT22;4432;50.890;4.744;2022-10-16T03:31:55;13.30;99.90
8792;DHT22;4432;50.890;4.744;2022-10-16T03:34:21;13.30;99.90
8792;DHT22;4432;50.890;4.744;2022-10-16T03:36:47;13.20;99.90
8792;DHT22;4432;50.890;4.744;2022-10-16T03:39:12;13.20;99.90
8792;DHT22;4432;50.890;4.744;2022-10-16T03:41:38;13.20;99.90
8792;DHT22;4432;50.890;4.744;2022-10-16T03:44:04;13.20;99.90
8792;DHT22;4432;50.890;4.744;2022-10-16T03:46:29;13.20;99.90
8792;DHT22;4432;50.890;4.744;2022-10-16T03:48:55;13.20;99.90
8792;DHT22;4432;50.890;4.744;2022-10-16T03:51:21;13.20;99.90
8792;DHT22;4432;50.890;4.744;2022-10-16T03:53:47;13.20;99.90
8792;DHT22;4432;50.890;4.744;2022-10-16T03:56:12;13.20;99.90
8792;DHT22;4432;50.890;4.744;2022-10-16T03:58:38;13.10;99.90
8792;DHT22;4432;50.890;4.744;2022-10-16T04:01:04;13.10;99.90
8792;DHT22;4432;50.890;4.744;2022-10-16T04:03:29;13.10;99.90
8792;DHT22;4432;50.890;4.744;2022-10-16T04:05:55;13.00;99.90
8792;DHT22;4432;50.890;4.744;2022-10-16T04:08:22;13.00;99.90
8792;DHT22;4432;50.890;4.744;2022-10-16T04:10:47;13.10;99.90
8792;DHT22;4432;50.890;4.744;2022-10-16T04:13:13;13.00;99.90
8792;DHT22;4432;50.890;4.744;2022-10-16T04:15:39;13.00;99.90
8792;DHT22;4432;50.890;4.744;2022-10-16T04:18:05;13.00;99.90
8792;DHT22;4432;50.890;4.744;2022-10-16T04:20:31;13.00;99.90
8792;DHT22;4432;50.890;4.744;2022-10-16T04:22:57;13.00;99.90
8792;DHT22;4432;50.890;4.744;2022-10-16T04:25:22;13.10;99.90
8792;DHT22;4432;50.890;4.744;2022-10-16T04:27:48;13.10;99.90
8792;DHT22;4432;50.890;4.744;2022-10-16T04:30:14;13.10;99.90
8792;DHT22;4432;50.890;4.744;2022-10-16T04:32:40;13.00;99.90
8792;DHT22;4432;50.890;4.744;2022-10-16T04:35:06;13.00;99.90
8792;DHT22;4432;50.890;4.744;2022-10-16T04:37:32;13.00;99.90
8792;DHT22;4432;50.890;4.744;2022-10-16T04:39:58;13.00;99.90
8792;DHT22;4432;50.890;4.744;2022-10-16T04:42:23;13.00;99.90
8792;DHT22;4432;50.890;4.744;2022-10-16T04:44:49;13.00;99.90
8792;DHT22;4432;50.890;4.744;2022-10-16T04:47:15;12.90;99.90
8792;DHT22;4432;50.890;4.744;2022-10-16T04:49:40;12.90;99.90
8792;DHT22;4432;50.890;4.744;2022-10-16T04:52:06;12.90;99.90
8792;DHT22;4432;50.890;4.744;2022-10-16T04:54:34;12.90;99.90
8792;DHT22;4432;50.890;4.744;2022-10-16T04:57:00;12.90;99.90
8792;DHT22;4432;50.890;4.744;2022-10-16T04:59:25;13.00;99.90
8792;DHT22;4432;50.890;4.744;2022-10-16T05:01:51;12.90;99.90
8792;DHT22;4432;50.890;4.744;2022-10-16T05:04:17;13.00;99.90
8792;DHT22;4432;50.890;4.744;2022-10-16T05:06:42;12.90;99.90
8792;DHT22;4432;50.890;4.744;2022-10-16T05:09:09;12.90;99.90
8792;DHT22;4432;50.890;4.744;2022-10-16T05:11:35;13.00;99.90
8792;DHT22;4432;50.890;4.744;2022-10-16T05:14:01;12.90;99.90
8792;DHT22;4432;50.890;4.744;2022-10-16T05:16:27;13.00;99.90
8792;DHT22;4432;50.890;4.744;2022-10-16T05:18:52;13.00;99.90
8792;DHT22;4432;50.890;4.744;2022-10-16T05:21:19;12.90;99.90
8792;DHT22;4432;50.890;4.744;2022-10-16T05:23:45;13.00;99.90
8792;DHT22;4432;50.890;4.744;2022-10-16T05:26:10;13.00;99.90
8792;DHT22;4432;50.890;4.744;2022-10-16T05:28:36;13.00;99.90
8792;DHT22;4432;50.890;4.744;2022-10-16T05:31:09;13.00;99.90
8792;DHT22;4432;50.890;4.744;2022-10-16T05:33:35;13.00;99.90
8792;DHT22;4432;50.890;4.744;2022-10-16T05:36:03;12.90;99.90
8792;DHT22;4432;50.890;4.744;2022-10-16T05:38:29;12.90;99.90
8792;DHT22;4432;50.890;4.744;2022-10-16T05:40:54;12.90;99.90
8792;DHT22;4432;50.890;4.744;2022-10-16T05:43:21;12.80;99.90
8792;DHT22;4432;50.890;4.744;2022-10-16T05:46:06;12.80;99.90
8792;DHT22;4432;50.890;4.744;2022-10-16T05:48:32;12.80;99.90
8792;DHT22;4432;50.890;4.744;2022-10-16T05:53:24;12.80;99.90
8792;DHT22;4432;50.890;4.744;2022-10-16T05:55:55;12.80;99.90
8792;DHT22;4432;50.890;4.744;2022-10-16T05:58:21;12.70;99.90
8792;DHT22;4432;50.890;4.744;2022-10-16T06:00:56;12.70;99.90
8792;DHT22;4432;50.890;4.744;2022-10-16T06:03:22;12.80;99.90
8792;DHT22;4432;50.890;4.744;2022-10-16T06:05:49;12.80;99.90
8792;DHT22;4432;50.890;4.744;2022-10-16T06:08:15;12.70;99.90
8792;DHT22;4432;50.890;4.744;2022-10-16T06:10:40;12.70;99.90
8792;DHT22;4432;50.890;4.744;2022-10-16T06:13:06;12.80;99.90
8792;DHT22;4432;50.890;4.744;2022-10-16T06:15:32;12.80;99.90
8792;DHT22;4432;50.890;4.744;2022-10-16T06:17:58;12.70;99.90
8792;DHT22;4432;50.890;4.744;2022-10-16T06:20:24;12.80;99.90
8792;DHT22;4432;50.890;4.744;2022-10-16T06:22:49;12.80;99.90
8792;DHT22;4432;50.890;4.744;2022-10-16T06:25:15;12.80;99.90
8792;DHT22;4432;50.890;4.744;2022-10-16T06:27:41;12.90;99.90
8792;DHT22;4432;50.890;4.744;2022-10-16T06:30:07;12.80;99.90
8792;DHT22;4432;50.890;4.744;2022-10-16T06:32:33;12.80;99.90
8792;DHT22;4432;50.890;4.744;2022-10-16T06:34:58;12.90;99.90
8792;DHT22;4432;50.890;4.744;2022-10-16T06:37:24;12.90;99.90
8792;DHT22;4432;50.890;4.744;2022-10-16T06:39:50;12.90;99.90
8792;DHT22;4432;50.890;4.744;2022-10-16T06:42:18;12.90;99.90
8792;DHT22;4432;50.890;4.744;2022-10-16T06:44:44;13.00;99.90
8792;DHT22;4432;50.890;4.744;2022-10-16T06:47:10;13.00;99.90
8792;DHT22;4432;50.890;4.744;2022-10-16T06:49:35;12.90;99.90
8792;DHT22;4432;50.890;4.744;2022-10-16T06:52:01;13.00;99.90
8792;DHT22;4432;50.890;4.744;2022-10-16T06:54:27;13.10;99.90
8792;DHT22;4432;50.890;4.744;2022-10-16T06:56:54;13.20;99.90
8792;DHT22;4432;50.890;4.744;2022-10-16T06:59:20;13.20;99.90
8792;DHT22;4432;50.890;4.744;2022-10-16T07:01:46;13.50;99.90
8792;DHT22;4432;50.890;4.744;2022-10-16T07:04:12;14.00;99.90
8792;DHT22;4432;50.890;4.744;2022-10-16T07:06:38;14.70;99.90
8792;DHT22;4432;50.890;4.744;2022-10-16T07:09:08;15.40;99.90
8792;DHT22;4432;50.890;4.744;2022-10-16T07:11:35;16.00;99.90
8792;DHT22;4432;50.890;4.744;2022-10-16T07:14:02;16.40;99.90
8792;DHT22;4432;50.890;4.744;2022-10-16T07:16:29;17.00;99.90
8792;DHT22;4432;50.890;4.744;2022-10-16T07:19:01;17.40;99.90
8792;DHT22;4432;50.890;4.744;2022-10-16T07:21:34;17.70;99.90
8792;DHT22;4432;50.890;4.744;2022-10-16T07:24:01;17.70;99.90
8792;DHT22;4432;50.890;4.744;2022-10-16T07:26:31;17.30;99.90
8792;DHT22;4432;50.890;4.744;2022-10-16T07:28:58;16.80;99.90
8792;DHT22;4432;50.890;4.744;2022-10-16T07:31:24;16.70;99.90
8792;DHT22;4432;50.890;4.744;2022-10-16T07:33:51;16.60;99.90
8792;DHT22;4432;50.890;4.744;2022-10-16T07:36:19;16.60;99.90
8792;DHT22;4432;50.890;4.744;2022-10-16T07:38:45;16.40;99.90
8792;DHT22;4432;50.890;4.744;2022-10-16T07:41:12;16.30;99.90
8792;DHT22;4432;50.890;4.744;2022-10-16T07:43:38;16.40;99.90
8792;DHT22;4432;50.890;4.744;2022-10-16T07:46:04;16.40;99.90
8792;DHT22;4432;50.890;4.744;2022-10-16T07:48:33;16.40;99.90
8792;DHT22;4432;50.890;4.744;2022-10-16T07:51:06;16.50;99.90
8792;DHT22;4432;50.890;4.744;2022-10-16T07:53:33;16.50;99.90
8792;DHT22;4432;50.890;4.744;2022-10-16T07:56:03;16.50;99.90
8792;DHT22;4432;50.890;4.744;2022-10-16T07:58:30;16.70;99.90
8792;DHT22;4432;50.890;4.744;2022-10-16T08:00:56;16.70;99.90
8792;DHT22;4432;50.890;4.744;2022-10-16T08:03:23;16.90;99.90
8792;DHT22;4432;50.890;4.744;2022-10-16T08:05:49;17.20;99.90
8792;DHT22;4432;50.890;4.744;2022-10-16T08:08:17;17.30;99.90
8792;DHT22;4432;50.890;4.744;2022-10-16T08:10:43;17.70;99.90
8792;DHT22;4432;50.890;4.744;2022-10-16T08:13:09;18.10;99.90
8792;DHT22;4432;50.890;4.744;2022-10-16T08:15:35;18.50;99.90
8792;DHT22;4432;50.890;4.744;2022-10-16T08:18:03;18.80;99.90
8792;DHT22;4432;50.890;4.744;2022-10-16T08:20:31;19.20;99.90
8792;DHT22;4432;50.890;4.744;2022-10-16T08:22:57;19.10;99.90
8792;DHT22;4432;50.890;4.744;2022-10-16T08:25:23;19.10;99.90
8792;DHT22;4432;50.890;4.744;2022-10-16T08:27:49;19.40;99.90
8792;DHT22;4432;50.890;4.744;2022-10-16T08:30:17;19.40;99.90
8792;DHT22;4432;50.890;4.744;2022-10-16T08:32:44;19.40;99.90
8792;DHT22;4432;50.890;4.744;2022-10-16T08:35:10;19.30;99.90
8792;DHT22;4432;50.890;4.744;2022-10-16T08:37:37;19.30;99.90
8792;DHT22;4432;50.890;4.744;2022-10-16T08:40:05;19.80;99.90
8792;DHT22;4432;50.890;4.744;2022-10-16T08:42:50;20.00;99.90
8792;DHT22;4432;50.890;4.744;2022-10-16T08:45:30;19.80;99.90
8792;DHT22;4432;50.890;4.744;2022-10-16T08:51:02;19.50;99.90
8792;DHT22;4432;50.890;4.744;2022-10-16T08:53:44;19.60;99.90
8792;DHT22;4432;50.890;4.744;2022-10-16T08:56:11;19.50;99.90
8792;DHT22;4432;50.890;4.744;2022-10-16T08:58:37;19.40;99.90
8792;DHT22;4432;50.890;4.744;2022-10-16T09:01:05;19.70;99.90
8792;DHT22;4432;50.890;4.744;2022-10-16T09:06:24;20.10;99.90
8792;DHT22;4432;50.890;4.744;2022-10-16T09:17:32;19.80;99.90
8792;DHT22;4432;50.890;4.744;2022-10-16T09:20:42;19.70;99.90
8792;DHT22;4432;50.890;4.744;2022-10-16T09:23:14;19.70;99.90
8792;DHT22;4432;50.890;4.744;2022-10-16T09:25:44;19.70;99.90
8792;DHT22;4432;50.890;4.744;2022-10-16T09:28:10;19.60;99.90
8792;DHT22;4432;50.890;4.744;2022-10-16T09:30:37;19.60;99.90
8792;DHT22;4432;50.890;4.744;2022-10-16T09:33:06;19.70;99.90
8792;DHT22;4432;50.890;4.744;2022-10-16T09:38:33;19.70;99.90
8792;DHT22;4432;50.890;4.744;2022-10-16T09:41:01;19.70;99.90
8792;DHT22;4432;50.890;4.744;2022-10-16T09:43:41;19.60;99.90
8792;DHT22;4432;50.890;4.744;2022-10-16T09:46:34;19.40;99.90
8792;DHT22;4432;50.890;4.744;2022-10-16T09:49:04;19.60;99.90
8792;DHT22;4432;50.890;4.744;2022-10-16T09:51:34;19.70;99.90
8792;DHT22;4432;50.890;4.744;2022-10-16T09:56:36;19.60;99.90
8792;DHT22;4432;50.890;4.744;2022-10-16T09:59:17;19.60;99.90
8792;DHT22;4432;50.890;4.744;2022-10-16T10:01:48;19.70;99.90
8792;DHT22;4432;50.890;4.744;2022-10-16T10:04:14;19.90;99.90
8792;DHT22;4432;50.890;4.744;2022-10-16T10:06:51;20.00;99.90
8792;DHT22;4432;50.890;4.744;2022-10-16T10:09:28;20.10;99.90
8792;DHT22;4432;50.890;4.744;2022-10-16T10:11:57;20.00;99.90
8792;DHT22;4432;50.890;4.744;2022-10-16T10:14:34;20.10;99.90
8792;DHT22;4432;50.890;4.744;2022-10-16T10:17:20;20.20;99.90
8792;DHT22;4432;50.890;4.744;2022-10-16T10:38:49;20.20;99.90
8792;DHT22;4432;50.890;4.744;2022-10-16T10:47:19;20.00;99.90
8792;DHT22;4432;50.890;4.744;2022-10-16T10:52:43;20.00;99.90
8792;DHT22;4432;50.890;4.744;2022-10-16T10:55:54;20.00;99.90
8792;DHT22;4432;50.890;4.744;2022-10-16T11:01:17;19.80;99.90
8792;DHT22;4432;50.890;4.744;2022-10-16T11:06:32;19.70;99.90
8792;DHT22;4432;50.890;4.744;2022-10-16T11:09:19;19.70;99.90
8792;DHT22;4432;50.890;4.744;2022-10-16T11:11:54;19.70;99.90
8792;DHT22;4432;50.890;4.744;2022-10-16T11:15:13;19.50;99.90
8792;DHT22;4432;50.890;4.744;2022-10-16T11:17:44;19.20;99.90
8792;DHT22;4432;50.890;4.744;2022-10-16T11:20:26;19.20;99.90
8792;DHT22;4432;50.890;4.744;2022-10-16T11:22:58;19.10;99.90
8792;DHT22;4432;50.890;4.744;2022-10-16T11:25:30;19.10;99.90
8792;DHT22;4432;50.890;4.744;2022-10-16T11:28:02;19.10;99.90
8792;DHT22;4432;50.890;4.744;2022-10-16T11:30:31;18.90;99.90
8792;DHT22;4432;50.890;4.744;2022-10-16T11:33:14;19.00;99.90
8792;DHT22;4432;50.890;4.744;2022-10-16T11:35:47;19.50;99.90
8792;DHT22;4432;50.890;4.744;2022-10-16T11:41:00;20.20;99.90
8792;DHT22;4432;50.890;4.744;2022-10-16T11:43:37;20.50;99.90
8792;DHT22;4432;50.890;4.744;2022-10-16T11:46:19;20.20;99.90
8792;DHT22;4432;50.890;4.744;2022-10-16T11:51:26;19.50;99.90
8792;DHT22;4432;50.890;4.744;2022-10-16T11:54:26;19.40;99.90
8792;DHT22;4432;50.890;4.744;2022-10-16T11:56:57;19.50;99.90
8792;DHT22;4432;50.890;4.744;2022-10-16T11:59:29;19.60;99.90
8792;DHT22;4432;50.890;4.744;2022-10-16T12:04:47;19.60;99.90
8792;DHT22;4432;50.890;4.744;2022-10-16T12:07:19;19.30;99.90
8792;DHT22;4432;50.890;4.744;2022-10-16T12:09:45;19.20;99.90
8792;DHT22;4432;50.890;4.744;2022-10-16T12:12:37;19.30;99.90
8792;DHT22;4432;50.890;4.744;2022-10-16T12:15:25;19.40;99.90
8792;DHT22;4432;50.890;4.744;2022-10-16T12:17:52;19.50;99.90
8792;DHT22;4432;50.890;4.744;2022-10-16T12:20:31;19.50;99.90
8792;DHT22;4432;50.890;4.744;2022-10-16T12:23:05;19.50;99.90
8792;DHT22;4432;50.890;4.744;2022-10-16T12:25:36;19.60;99.90
8792;DHT22;4432;50.890;4.744;2022-10-16T12:30:42;19.50;99.90
8792;DHT22;4432;50.890;4.744;2022-10-16T12:35:49;19.90;99.90
8792;DHT22;4432;50.890;4.744;2022-10-16T12:38:31;19.80;99.90
8792;DHT22;4432;50.890;4.744;2022-10-16T12:41:08;19.80;99.90
8792;DHT22;4432;50.890;4.744;2022-10-16T12:43:41;20.00;99.90
8792;DHT22;4432;50.890;4.744;2022-10-16T12:48:33;20.20;99.90
8792;DHT22;4432;50.890;4.744;2022-10-16T12:51:25;20.30;99.90
8792;DHT22;4432;50.890;4.744;2022-10-16T12:54:04;20.50;99.90
8792;DHT22;4432;50.890;4.744;2022-10-16T12:56:37;20.30;99.90
8792;DHT22;4432;50.890;4.744;2022-10-16T13:07:32;20.40;99.90
8792;DHT22;4432;50.890;4.744;2022-10-16T13:10:23;20.20;99.90
8792;DHT22;4432;50.890;4.744;2022-10-16T13:13:18;20.00;99.90
8792;DHT22;4432;50.890;4.744;2022-10-16T13:24:59;19.90;99.90
8792;DHT22;4432;50.890;4.744;2022-10-16T13:30:21;20.10;99.90
8792;DHT22;4432;50.890;4.744;2022-10-16T13:32:50;20.40;99.90
8792;DHT22;4432;50.890;4.744;2022-10-16T13:35:22;20.40;99.90
8792;DHT22;4432;50.890;4.744;2022-10-16T13:37:49;20.30;99.90
8792;DHT22;4432;50.890;4.744;2022-10-16T13:40:23;20.30;99.90
8792;DHT22;4432;50.890;4.744;2022-10-16T13:42:50;20.30;99.90
8792;DHT22;4432;50.890;4.744;2022-10-16T13:45:26;20.30;99.90
8792;DHT22;4432;50.890;4.744;2022-10-16T13:48:02;20.30;99.90
8792;DHT22;4432;50.890;4.744;2022-10-16T13:50:29;20.30;99.90
8792;DHT22;4432;50.890;4.744;2022-10-16T13:53:10;20.70;99.90
8792;DHT22;4432;50.890;4.744;2022-10-16T13:55:37;20.40;99.90
8792;DHT22;4432;50.890;4.744;2022-10-16T13:58:14;20.30;99.90
8792;DHT22;4432;50.890;4.744;2022-10-16T14:00:52;20.00;99.90
8792;DHT22;4432;50.890;4.744;2022-10-16T14:03:19;20.00;99.90
8792;DHT22;4432;50.890;4.744;2022-10-16T14:05:52;19.60;99.90
8792;DHT22;4432;50.890;4.744;2022-10-16T14:08:18;19.50;99.90
8792;DHT22;4432;50.890;4.744;2022-10-16T14:10:48;19.60;99.90
8792;DHT22;4432;50.890;4.744;2022-10-16T14:13:18;19.60;99.90
8792;DHT22;4432;50.890;4.744;2022-10-16T14:15:47;19.70;99.90
8792;DHT22;4432;50.890;4.744;2022-10-16T14:18:23;19.80;99.90
8792;DHT22;4432;50.890;4.744;2022-10-16T14:20:50;19.80;99.90
8792;DHT22;4432;50.890;4.744;2022-10-16T14:23:35;19.70;99.90
8792;DHT22;4432;50.890;4.744;2022-10-16T14:28:35;19.50;99.90
8792;DHT22;4432;50.890;4.744;2022-10-16T14:31:03;19.50;99.90
8792;DHT22;4432;50.890;4.744;2022-10-16T14:33:42;19.50;99.90
8792;DHT22;4432;50.890;4.744;2022-10-16T14:36:16;19.50;99.90
8792;DHT22;4432;50.890;4.744;2022-10-16T14:41:15;19.50;99.90
8792;DHT22;4432;50.890;4.744;2022-10-16T14:43:51;19.60;99.90
8792;DHT22;4432;50.890;4.744;2022-10-16T14:46:20;19.70;99.90
8792;DHT22;4432;50.890;4.744;2022-10-16T14:48:48;19.70;99.90
8792;DHT22;4432;50.890;4.744;2022-10-16T14:51:19;19.60;99.90
8792;DHT22;4432;50.890;4.744;2022-10-16T14:53:46;19.70;99.90
8792;DHT22;4432;50.890;4.744;2022-10-16T14:58:40;19.70;99.90
8792;DHT22;4432;50.890;4.744;2022-10-16T15:01:08;19.60;99.90
8792;DHT22;4432;50.890;4.744;2022-10-16T15:03:36;19.60;99.90
8792;DHT22;4432;50.890;4.744;2022-10-16T15:06:02;19.50;99.90
8792;DHT22;4432;50.890;4.744;2022-10-16T15:08:27;19.40;99.90
8792;DHT22;4432;50.890;4.744;2022-10-16T15:10:54;19.30;99.90
8792;DHT22;4432;50.890;4.744;2022-10-16T15:13:19;19.20;99.90
8792;DHT22;4432;50.890;4.744;2022-10-16T15:15:46;19.20;99.90
8792;DHT22;4432;50.890;4.744;2022-10-16T15:18:12;19.10;99.90
8792;DHT22;4432;50.890;4.744;2022-10-16T15:20:40;19.10;99.90
8792;DHT22;4432;50.890;4.744;2022-10-16T15:23:13;19.10;99.90
8792;DHT22;4432;50.890;4.744;2022-10-16T15:25:51;19.00;99.90
8792;DHT22;4432;50.890;4.744;2022-10-16T15:28:19;19.10;99.90
8792;DHT22;4432;50.890;4.744;2022-10-16T15:30:46;19.00;99.90
8792;DHT22;4432;50.890;4.744;2022-10-16T15:33:15;19.00;99.90
8792;DHT22;4432;50.890;4.744;2022-10-16T15:35:41;19.00;99.90
8792;DHT22;4432;50.890;4.744;2022-10-16T15:38:10;19.00;99.90
8792;DHT22;4432;50.890;4.744;2022-10-16T15:40:37;18.90;99.90
8792;DHT22;4432;50.890;4.744;2022-10-16T15:43:03;18.70;99.90
8792;DHT22;4432;50.890;4.744;2022-10-16T15:45:28;18.60;99.90
8792;DHT22;4432;50.890;4.744;2022-10-16T15:47:54;18.60;99.90
8792;DHT22;4432;50.890;4.744;2022-10-16T15:50:20;18.50;99.90
8792;DHT22;4432;50.890;4.744;2022-10-16T15:52:45;18.40;99.90
8792;DHT22;4432;50.890;4.744;2022-10-16T15:55:12;18.30;99.90
8792;DHT22;4432;50.890;4.744;2022-10-16T15:57:39;18.30;99.90
8792;DHT22;4432;50.890;4.744;2022-10-16T16:00:09;18.10;99.90
8792;DHT22;4432;50.890;4.744;2022-10-16T16:02:35;18.10;99.90
8792;DHT22;4432;50.890;4.744;2022-10-16T16:05:01;17.90;99.90
8792;DHT22;4432;50.890;4.744;2022-10-16T16:07:27;17.80;99.90
8792;DHT22;4432;50.890;4.744;2022-10-16T16:09:53;17.80;99.90
8792;DHT22;4432;50.890;4.744;2022-10-16T16:12:19;17.70;99.90
8792;DHT22;4432;50.890;4.744;2022-10-16T16:14:44;17.70;99.90
8792;DHT22;4432;50.890;4.744;2022-10-16T16:17:14;17.60;99.90
8792;DHT22;4432;50.890;4.744;2022-10-16T16:19:40;17.60;99.90
8792;DHT22;4432;50.890;4.744;2022-10-16T16:22:06;17.50;99.90
8792;DHT22;4432;50.890;4.744;2022-10-16T16:24:32;17.50;99.90
8792;DHT22;4432;50.890;4.744;2022-10-16T16:26:58;17.40;99.90
8792;DHT22;4432;50.890;4.744;2022-10-16T16:29:23;17.40;99.90
8792;DHT22;4432;50.890;4.744;2022-10-16T16:31:49;17.30;99.90
8792;DHT22;4432;50.890;4.744;2022-10-16T16:34:15;17.20;99.90
8792;DHT22;4432;50.890;4.744;2022-10-16T16:36:41;17.00;99.90
8792;DHT22;4432;50.890;4.744;2022-10-16T16:39:07;17.00;99.90
8792;DHT22;4432;50.890;4.744;2022-10-16T16:41:33;16.90;99.90
8792;DHT22;4432;50.890;4.744;2022-10-16T16:44:04;16.90;99.90
8792;DHT22;4432;50.890;4.744;2022-10-16T16:46:32;16.90;99.90
8792;DHT22;4432;50.890;4.744;2022-10-16T16:48:58;16.90;99.90
8792;DHT22;4432;50.890;4.744;2022-10-16T16:51:24;16.90;99.90
8792;DHT22;4432;50.890;4.744;2022-10-16T16:53:52;16.90;99.90
8792;DHT22;4432;50.890;4.744;2022-10-16T16:56:18;16.80;99.90
8792;DHT22;4432;50.890;4.744;2022-10-16T16:58:46;16.80;99.90
8792;DHT22;4432;50.890;4.744;2022-10-16T17:01:12;16.80;99.90
8792;DHT22;4432;50.890;4.744;2022-10-16T17:03:41;16.80;99.90
8792;DHT22;4432;50.890;4.744;2022-10-16T17:06:07;16.80;99.90
8792;DHT22;4432;50.890;4.744;2022-10-16T17:08:35;16.80;99.90
8792;DHT22;4432;50.890;4.744;2022-10-16T17:11:01;16.70;99.90
8792;DHT22;4432;50.890;4.744;2022-10-16T17:13:29;16.60;99.90
8792;DHT22;4432;50.890;4.744;2022-10-16T17:15:55;16.60;99.90
8792;DHT22;4432;50.890;4.744;2022-10-16T17:18:23;16.60;99.90
8792;DHT22;4432;50.890;4.744;2022-10-16T17:20:50;16.70;99.90
8792;DHT22;4432;50.890;4.744;2022-10-16T17:23:17;16.70;99.90
8792;DHT22;4432;50.890;4.744;2022-10-16T17:25:44;16.70;99.90
8792;DHT22;4432;50.890;4.744;2022-10-16T17:28:10;16.60;99.90
8792;DHT22;4432;50.890;4.744;2022-10-16T17:30:37;16.50;99.90
8792;DHT22;4432;50.890;4.744;2022-10-16T17:33:04;16.30;99.90
8792;DHT22;4432;50.890;4.744;2022-10-16T17:35:39;16.20;99.90
8792;DHT22;4432;50.890;4.744;2022-10-16T17:38:05;16.10;99.90
8792;DHT22;4432;50.890;4.744;2022-10-16T17:40:31;16.00;99.90
8792;DHT22;4432;50.890;4.744;2022-10-16T17:42:57;15.90;99.90
8792;DHT22;4432;50.890;4.744;2022-10-16T17:45:23;15.90;99.90
8792;DHT22;4432;50.890;4.744;2022-10-16T17:47:48;15.80;99.90
8792;DHT22;4432;50.890;4.744;2022-10-16T17:50:14;15.80;99.90
8792;DHT22;4432;50.890;4.744;2022-10-16T17:52:40;15.70;99.90
8792;DHT22;4432;50.890;4.744;2022-10-16T17:55:06;15.80;99.90
8792;DHT22;4432;50.890;4.744;2022-10-16T17:57:32;15.80;99.90
8792;DHT22;4432;50.890;4.744;2022-10-16T17:59:58;15.70;99.90
8792;DHT22;4432;50.890;4.744;2022-10-16T18:02:24;15.70;99.90
8792;DHT22;4432;50.890;4.744;2022-10-16T18:04:50;15.60;99.90
8792;DHT22;4432;50.890;4.744;2022-10-16T18:07:17;15.60;99.90
8792;DHT22;4432;50.890;4.744;2022-10-16T18:09:42;15.50;99.90